ADDS METAR Data INFO
IDs: Format: Raw Decoded Include TAF

Data at: 0434 UTC 24 Apr 2018

KUTS 240353Z AUTO 00000KT 10SM CLR 15/13 A3005 RMK AO2 SLP172 T01500128
KUTS 240253Z AUTO 00000KT 10SM CLR 16/13 A3003 RMK AO2 SLP166 T01610128 53018
KUTS 240153Z AUTO 00000KT 10SM CLR 19/13 A3000 RMK AO2 SLP157 T01890133
KUTS 240053Z AUTO 00000KT 10SM CLR 21/13 A2998 RMK AO2 SLP151 T02110128
KUTS 232353Z AUTO VRB05KT 10SM CLR 23/12 A2998 RMK AO2 SLP148 T02330117 10250 20222 56010
KUTS 232253Z AUTO 34009KT 10SM CLR 24/11 A2998 RMK AO2 SLP149 T02440111
KUTS 232153Z AUTO 30011KT 10SM CLR 24/11 A2999 RMK AO2 SLP152 T02440106
KUTS 232053Z AUTO 32010KT 10SM FEW050 24/11 A3001 RMK AO2 SLP159 T02390111 58016
KUTS 231953Z AUTO 33009KT 10SM FEW046 24/12 A3003 RMK AO2 SLP166 T02390117
KUTS 231853Z AUTO 28012G17KT 10SM FEW044 23/11 A3005 RMK AO2 SLP172 T02330111
KUTS 231753Z AUTO 30012G18KT 10SM CLR 22/10 A3006 RMK AO2 SLP175 T02220100 10222 20111 58009
KUTS 231653Z AUTO 29009KT 10SM CLR 21/11 A3008 RMK AO2 SLP182 T02110106
KUTS 231553Z AUTO 33008KT 290V360 10SM CLR 19/11 A3009 RMK AO2 SLP186 T01940106
KUTS 231453Z AUTO 30007KT 10SM CLR 18/11 A3009 RMK AO2 SLP185 T01780106 51010
KUTS 231353Z AUTO 31007KT 10SM CLR 16/10 A3009 RMK AO2 SLP185 T01560100
KUTS 231253Z AUTO 29005KT 10SM CLR 13/08 A3008 RMK AO2 SLP184 T01280083
KUTS 231153Z AUTO 25004KT 10SM CLR 11/08 A3006 RMK AO2 SLP175 T01110078 10128 20106 53015
KUTS 231053Z AUTO 24005KT 10SM CLR 11/08 A3002 RMK AO2 SLP165 T01110078
KUTS 230953Z AUTO 25003KT 10SM CLR 12/08 A3001 RMK AO2 SLP160 T01170083
KUTS 230853Z AUTO 00000KT 10SM CLR 11/08 A3001 RMK AO2 SLP160 T01110083 58005
KUTS 230753Z AUTO 00000KT 10SM CLR 12/09 A3002 RMK AO2 SLP162 T01170089
KUTS 230653Z AUTO 00000KT 10SM CLR 12/09 A3003 RMK AO2 SLP166 T01220094
KUTS 230553Z AUTO 00000KT 10SM CLR 13/09 A3003 RMK AO2 SLP165 T01280089 10206 20122 402170122 58003
KUTS 230453Z AUTO 00000KT 10SM CLR 13/10 A3004 RMK AO2 SLP169 T01280100
KUTS 230353Z AUTO 30003KT 10SM CLR 15/09 A3005 RMK AO2 SLP174 T01500089
KUTS 230253Z AUTO 31003KT 10SM CLR 15/09 A3004 RMK AO2 SLP169 T01500094 53015
KUTS 230153Z AUTO 32004KT 10SM CLR 16/09 A3002 RMK AO2 SLP165 T01610094
KUTS 230053Z AUTO 32005KT 10SM CLR 18/09 A3000 RMK AO2 SLP156 T01780094
KUTS 222353Z AUTO 32009KT 10SM CLR 21/09 A2999 RMK AO2 SLP154 T02060089 10217 20167 55004
KUTS 222253Z AUTO 32009KT 10SM CLR 21/09 A2999 RMK AO2 SLP153 T02110089
KUTS 222153Z AUTO 32010KT 10SM CLR 22/09 A2999 RMK AO2 SLP152 T02170094
KUTS 222053Z AUTO 30011KT 10SM FEW043 22/10 A3001 RMK AO2 SLP157 T02170100 58022
KUTS 221953Z AUTO 30010G15KT 10SM FEW035 20/11 A3003 RMK AO2 SLP165 T02000106
KUTS 221853Z AUTO 33011G18KT 10SM SCT027 19/11 A3005 RMK AO2 SLP174 T01890106
KUTS 221837Z AUTO 30011KT 10SM BKN026 18/11 A3006 RMK AO2 T01780106
KUTS 221829Z AUTO 30010KT 10SM SCT026 18/10 A3006 RMK AO2 T01780100
KUTS 221753Z AUTO 31010G17KT 290V350 10SM OVC024 17/11 A3007 RMK AO2 SLP180 T01670106 10167 20122 50003
KUTS 221653Z AUTO 33009KT 10SM OVC019 14/10 A3008 RMK AO2 SLP184 T01440100